createdAt,value
2019-03-04T05:01:02.633Z,982.73
2019-03-04T05:02:02.507Z,982.70
2019-03-04T05:03:55.191Z,982.64
2019-03-04T05:04:55.063Z,982.61
2019-03-04T05:06:47.751Z,982.76
2019-03-04T05:07:47.633Z,982.81
2019-03-04T05:09:40.299Z,982.64
2019-03-04T05:10:40.205Z,982.66
2019-03-04T05:12:32.882Z,982.56
2019-03-04T05:13:32.754Z,982.48
2019-03-04T05:15:25.417Z,982.45
2019-03-04T05:16:25.305Z,982.46
2019-03-04T05:18:17.989Z,982.43
2019-03-04T05:19:17.875Z,982.42
2019-03-04T05:21:10.568Z,982.44
2019-03-04T05:22:10.431Z,982.36
2019-03-04T05:24:03.102Z,982.39
2019-03-04T05:25:02.999Z,982.05
2019-03-04T05:26:55.679Z,982.23
2019-03-04T05:27:55.548Z,982.17
2019-03-04T05:29:48.214Z,982.19
2019-03-04T05:30:48.112Z,982.25
2019-03-04T05:32:40.793Z,982.07
2019-03-04T05:33:40.676Z,982.09
2019-03-04T05:35:33.338Z,982.12
2019-03-04T05:36:33.233Z,982.23
2019-03-04T05:38:25.920Z,982.07
2019-03-04T05:39:25.807Z,982.13
2019-03-04T05:41:18.496Z,982.06
2019-03-04T05:42:18.365Z,981.95
2019-03-04T05:44:11.040Z,981.91
2019-03-04T05:45:10.919Z,981.97
2019-03-04T05:47:03.583Z,981.90
2019-03-04T05:48:03.488Z,981.79
2019-03-04T05:49:56.157Z,981.69
2019-03-04T05:50:56.029Z,981.68
2019-03-04T05:52:48.721Z,981.57
2019-03-04T05:53:48.592Z,981.55
2019-03-04T05:55:41.265Z,981.65
2019-03-04T05:56:41.140Z,981.72
2019-03-04T05:58:33.832Z,981.54
2019-03-04T05:59:33.704Z,981.53
2019-03-04T06:01:26.376Z,981.48
2019-03-04T06:02:26.265Z,981.37
2019-03-04T06:04:18.962Z,981.40
2019-03-04T06:05:18.833Z,981.31
2019-03-04T06:07:11.496Z,981.31
2019-03-04T06:08:11.389Z,981.24
2019-03-04T06:10:04.080Z,981.19
2019-03-04T06:11:03.955Z,981.11
2019-03-04T06:12:58.175Z,981.22
2019-03-04T06:13:56.513Z,981.00
2019-03-04T06:15:49.198Z,980.89
2019-03-04T06:16:49.076Z,981.13
2019-03-04T06:18:41.740Z,981.08
2019-03-04T06:19:42.469Z,980.80
2019-03-04T06:21:34.316Z,980.90
2019-03-04T06:22:34.196Z,980.78
2019-03-04T06:24:26.867Z,980.83
2019-03-04T06:25:26.773Z,980.87
2019-03-04T06:27:19.457Z,981.11
2019-03-04T06:28:19.315Z,981.30
2019-03-04T06:30:12.133Z,981.94
2019-03-04T06:31:11.869Z,981.72
2019-03-04T06:33:04.550Z,981.61
2019-03-04T06:34:04.427Z,981.62
2019-03-04T06:35:58.086Z,981.26
2019-03-04T06:36:57.981Z,981.14
2019-03-04T06:38:50.667Z,981.26
2019-03-04T06:39:50.552Z,981.25
2019-03-04T06:41:43.209Z,981.42
2019-03-04T06:42:43.095Z,981.47
2019-03-04T06:44:35.781Z,981.52
2019-03-04T06:45:35.659Z,981.54
2019-03-04T06:47:28.330Z,981.57
2019-03-04T06:48:28.213Z,981.59
2019-03-04T06:50:20.899Z,982.02
2019-03-04T06:51:20.770Z,982.01
2019-03-04T06:53:13.436Z,982.14
2019-03-04T06:54:13.326Z,982.22
2019-03-04T06:56:06.039Z,982.26
2019-03-04T06:57:05.917Z,982.06
2019-03-04T06:58:58.630Z,982.00
2019-03-04T06:59:58.467Z,982.17
2019-03-04T07:01:51.151Z,982.33
2019-03-04T07:02:51.020Z,982.32
2019-03-04T07:04:43.691Z,982.20
2019-03-04T07:05:43.576Z,982.33
2019-03-04T07:07:36.279Z,982.19
2019-03-04T07:08:36.141Z,982.38
2019-03-04T07:10:29.302Z,982.34
2019-03-04T07:11:29.191Z,982.33
2019-03-04T07:13:21.871Z,982.44
2019-03-04T07:14:21.743Z,982.42
2019-03-04T07:16:14.410Z,982.34
2019-03-04T07:17:14.298Z,982.29
2019-03-04T07:19:07.001Z,982.04
2019-03-04T07:20:06.867Z,981.95
2019-03-04T07:21:59.579Z,981.96
2019-03-04T07:22:59.417Z,981.91
2019-03-04T07:24:52.099Z,981.89
2019-03-04T07:25:51.980Z,982.01
2019-03-04T07:27:44.642Z,981.98
2019-03-04T07:28:44.608Z,981.91
2019-03-04T07:30:37.199Z,981.98
2019-03-04T07:31:37.080Z,982.01
2019-03-04T07:33:29.747Z,981.74
2019-03-04T07:34:29.634Z,981.79
2019-03-04T07:36:22.332Z,982.13
2019-03-04T07:37:22.179Z,982.10
2019-03-04T07:39:14.842Z,982.19
2019-03-04T07:40:16.348Z,982.00
2019-03-04T07:42:07.416Z,982.24
2019-03-04T07:43:07.340Z,982.13
2019-03-04T07:45:00.481Z,982.26
2019-03-04T07:46:00.362Z,982.19
2019-03-04T07:47:53.001Z,982.31
2019-03-04T07:48:52.893Z,982.15
2019-03-04T07:50:46.077Z,982.25
2019-03-04T07:51:45.952Z,982.34
2019-03-04T07:53:46.011Z,982.31
2019-03-04T07:54:38.506Z,982.36
2019-03-04T07:56:31.207Z,982.40
2019-03-04T07:57:31.055Z,982.40
2019-03-04T07:59:23.734Z,982.37
2019-03-04T08:00:23.623Z,982.54
2019-03-04T08:02:16.311Z,982.61
2019-03-04T08:03:16.197Z,982.43
2019-03-04T08:05:08.845Z,982.57
2019-03-04T08:06:08.743Z,982.62
2019-03-04T08:08:01.934Z,982.48
2019-03-04T08:09:01.822Z,982.54
2019-03-04T08:10:54.477Z,982.42
2019-03-04T08:11:54.361Z,982.52
2019-03-04T08:13:47.564Z,982.50
2019-03-04T08:14:47.424Z,982.55
2019-03-04T08:16:40.097Z,982.64
2019-03-04T08:17:39.990Z,982.56
2019-03-04T08:19:32.662Z,982.38
2019-03-04T08:20:32.541Z,982.35
2019-03-04T08:22:25.231Z,982.43
2019-03-04T08:23:25.119Z,982.37
2019-03-04T08:25:17.836Z,982.38
2019-03-04T08:26:17.677Z,982.33
2019-03-04T08:28:10.851Z,982.71
2019-03-04T08:29:10.741Z,982.86
2019-03-04T08:31:03.433Z,983.04
2019-03-04T08:32:03.300Z,982.99
2019-03-04T08:33:55.961Z,983.21
2019-03-04T08:34:55.869Z,983.11
2019-03-04T08:36:48.546Z,983.03
2019-03-04T08:37:48.463Z,983.34
2019-03-04T08:39:41.078Z,983.30
2019-03-04T08:40:40.969Z,983.25
2019-03-04T08:42:33.656Z,983.22
2019-03-04T08:43:33.533Z,983.32
2019-03-04T08:45:26.180Z,983.15
2019-03-04T08:46:26.071Z,983.10
2019-03-04T08:48:18.758Z,983.08
2019-03-04T08:49:18.634Z,983.04
2019-03-04T08:51:11.315Z,982.98
2019-03-04T08:52:11.204Z,982.89
2019-03-04T08:54:03.883Z,982.98
2019-03-04T08:55:03.761Z,982.96
2019-03-04T08:57:03.667Z,982.87
2019-03-04T08:57:56.315Z,982.94
2019-03-04T08:59:48.973Z,982.88
2019-03-04T09:00:48.865Z,982.75
2019-03-04T09:02:41.548Z,982.84
2019-03-04T09:03:41.428Z,982.86
2019-03-04T09:05:34.086Z,982.80
2019-03-04T09:06:33.981Z,982.82
2019-03-04T09:08:26.656Z,982.73
2019-03-04T09:09:26.530Z,982.83
2019-03-04T09:11:19.189Z,982.71
2019-03-04T09:12:19.089Z,982.75
2019-03-04T09:14:11.773Z,982.66
2019-03-04T09:15:11.647Z,982.79
2019-03-04T09:17:04.314Z,982.55
2019-03-04T09:18:04.207Z,982.63
2019-03-04T09:19:56.888Z,982.65
2019-03-04T09:20:56.759Z,982.72
2019-03-04T09:22:49.459Z,982.65
2019-03-04T09:23:50.034Z,982.59
2019-03-04T09:25:42.049Z,982.46
2019-03-04T09:26:42.373Z,982.66
2019-03-04T09:28:34.590Z,982.52
2019-03-04T09:29:34.467Z,982.68
2019-03-04T09:31:27.165Z,982.56
2019-03-04T09:32:27.038Z,982.48
2019-03-04T09:34:19.795Z,982.43
2019-03-04T09:35:19.700Z,982.49
2019-03-04T09:37:12.377Z,982.59
2019-03-04T09:38:12.251Z,982.35
2019-03-04T09:40:05.189Z,982.51
2019-03-04T09:41:04.896Z,982.50
2019-03-04T09:42:57.757Z,982.45
2019-03-04T09:43:57.555Z,982.42
2019-03-04T09:45:50.822Z,982.49
2019-03-04T09:46:50.644Z,982.49
2019-03-04T09:48:43.283Z,982.55
2019-03-04T09:49:43.147Z,982.60
2019-03-04T09:51:35.820Z,982.47
2019-03-04T09:52:35.729Z,982.53
2019-03-04T09:54:28.399Z,982.54
2019-03-04T09:55:28.273Z,982.60
2019-03-04T09:57:20.960Z,982.60
2019-03-04T09:58:20.834Z,982.43
2019-03-04T10:00:13.532Z,982.46
2019-03-04T10:01:13.453Z,982.53
2019-03-04T10:03:06.075Z,982.59
2019-03-04T10:04:05.995Z,982.52
2019-03-04T10:05:58.652Z,982.70
2019-03-04T10:06:58.673Z,982.73
2019-03-04T10:08:51.214Z,982.78
2019-03-04T10:09:51.099Z,982.91
2019-03-04T10:11:43.780Z,982.94
2019-03-04T10:12:43.649Z,982.94
2019-03-04T10:14:36.322Z,982.92
2019-03-04T10:15:36.211Z,982.96
2019-03-04T10:17:28.890Z,982.87
2019-03-04T10:18:28.762Z,982.90
2019-03-04T10:20:21.428Z,982.90
2019-03-04T10:21:21.323Z,982.87
2019-03-04T10:23:14.015Z,982.90
2019-03-04T10:24:13.899Z,982.93
2019-03-04T10:26:06.598Z,982.88
2019-03-04T10:27:06.447Z,982.78
2019-03-04T10:28:59.136Z,982.96
2019-03-04T10:29:59.063Z,982.95
2019-03-04T10:31:51.672Z,982.99
2019-03-04T10:32:51.561Z,982.91
2019-03-04T10:34:44.254Z,982.80
2019-03-04T10:35:44.135Z,982.81
2019-03-04T10:37:36.801Z,982.94
2019-03-04T10:38:36.679Z,982.90
2019-03-04T10:40:29.385Z,982.79
2019-03-04T10:41:29.247Z,982.78
2019-03-04T10:43:21.932Z,982.93
2019-03-04T10:44:21.844Z,982.70
2019-03-04T10:46:14.508Z,982.73
2019-03-04T10:47:14.383Z,982.93
2019-03-04T10:49:07.072Z,982.89
2019-03-04T10:50:06.972Z,982.81
2019-03-04T10:51:59.691Z,982.77
2019-03-04T10:52:59.578Z,982.72
2019-03-04T10:54:52.398Z,982.57
2019-03-04T10:55:52.133Z,982.69
2019-03-04T10:57:44.814Z,982.68
2019-03-04T10:58:44.687Z,982.53
2019-03-04T11:00:37.418Z,982.62
2019-03-04T11:01:37.323Z,982.69
2019-03-04T11:03:30.005Z,982.71
2019-03-04T11:04:29.874Z,982.65
2019-03-04T11:06:22.542Z,982.69
2019-03-04T11:07:22.428Z,982.82
2019-03-04T11:09:15.130Z,982.79
2019-03-04T11:10:15.011Z,982.82
2019-03-04T11:12:07.738Z,983.39
2019-03-04T11:13:07.583Z,983.54
2019-03-04T11:15:00.342Z,983.95
2019-03-04T11:16:00.134Z,984.10
2019-03-04T11:17:54.414Z,984.00
2019-03-04T11:18:52.762Z,984.12
2019-03-04T11:20:45.479Z,984.11
2019-03-04T11:21:45.348Z,984.03
2019-03-04T11:23:37.992Z,984.07
2019-03-04T11:24:37.883Z,984.15
2019-03-04T11:26:30.562Z,984.21
2019-03-04T11:27:30.439Z,984.11
2019-03-04T11:29:23.119Z,984.18
2019-03-04T11:30:22.987Z,984.15
2019-03-04T11:32:15.656Z,984.21
2019-03-04T11:33:15.535Z,984.15
2019-03-04T11:35:08.215Z,984.43
2019-03-04T11:36:08.085Z,984.19
2019-03-04T11:38:00.749Z,984.15
2019-03-04T11:39:00.632Z,984.21
2019-03-04T11:40:53.813Z,984.18
2019-03-04T11:41:53.679Z,984.29
2019-03-04T11:43:46.340Z,984.20
2019-03-04T11:44:46.227Z,984.23
2019-03-04T11:46:38.901Z,984.26
2019-03-04T11:47:38.779Z,984.15
2019-03-04T11:49:31.452Z,984.19
2019-03-04T11:50:31.342Z,984.28
2019-03-04T11:52:24.017Z,984.25
2019-03-04T11:53:23.895Z,984.38
2019-03-04T11:55:16.568Z,984.34
2019-03-04T11:56:16.455Z,984.33
2019-03-04T11:58:09.129Z,984.44
2019-03-04T11:59:09.028Z,984.48
2019-03-04T12:01:01.675Z,984.50
2019-03-04T12:02:01.560Z,984.50
2019-03-04T12:03:54.237Z,984.55
2019-03-04T12:04:54.283Z,984.56
2019-03-04T12:06:47.297Z,984.72
2019-03-04T12:07:47.167Z,984.58
2019-03-04T12:09:39.832Z,984.70
2019-03-04T12:10:39.729Z,984.83
2019-03-04T12:12:33.109Z,984.65
2019-03-04T12:13:32.781Z,984.77
2019-03-04T12:15:25.943Z,984.76
2019-03-04T12:16:25.842Z,984.86
2019-03-04T12:18:18.517Z,984.84
2019-03-04T12:19:18.389Z,984.85
2019-03-04T12:21:11.059Z,984.87
2019-03-04T12:22:10.958Z,984.87
2019-03-04T12:24:03.639Z,984.88
2019-03-04T12:25:03.502Z,985.05
2019-03-04T12:26:56.175Z,984.98
2019-03-04T12:27:56.544Z,984.92
2019-03-04T12:29:48.765Z,985.09
2019-03-04T12:30:48.621Z,985.12
2019-03-04T12:32:41.319Z,985.22
2019-03-04T12:33:41.184Z,985.22
2019-03-04T12:35:34.421Z,985.21
2019-03-04T12:36:34.313Z,985.15
2019-03-04T12:38:26.999Z,985.07
2019-03-04T12:39:26.867Z,985.19
2019-03-04T12:41:19.532Z,985.14
2019-03-04T12:42:19.423Z,985.15
2019-03-04T12:44:12.102Z,985.20
2019-03-04T12:45:11.976Z,985.24
2019-03-04T12:47:04.649Z,985.32
2019-03-04T12:48:04.545Z,985.27
2019-03-04T12:49:57.718Z,985.24
2019-03-04T12:50:57.664Z,985.36
2019-03-04T12:52:50.875Z,985.42
2019-03-04T12:53:50.197Z,985.43
2019-03-04T12:55:42.847Z,985.46
2019-03-04T12:56:42.722Z,985.55
2019-03-04T12:58:35.388Z,985.61
2019-03-04T12:59:35.267Z,985.52
2019-03-04T13:01:27.978Z,985.56
2019-03-04T13:02:27.823Z,985.66
2019-03-04T13:04:20.492Z,985.78
2019-03-04T13:05:20.383Z,985.75
2019-03-04T13:07:13.069Z,985.76
2019-03-04T13:08:12.952Z,985.79
2019-03-04T13:10:05.607Z,985.81
2019-03-04T13:11:05.496Z,985.77
2019-03-04T13:12:58.207Z,985.77
2019-03-04T13:13:58.060Z,985.67
2019-03-04T13:15:50.715Z,985.77
2019-03-04T13:16:50.609Z,985.84
2019-03-04T13:18:43.288Z,985.87
2019-03-04T13:19:43.160Z,985.86
2019-03-04T13:21:35.827Z,985.85
2019-03-04T13:22:35.720Z,985.83
2019-03-04T13:24:28.413Z,985.87
2019-03-04T13:25:28.275Z,985.83
2019-03-04T13:27:23.684Z,985.95
2019-03-04T13:28:20.827Z,985.83
2019-03-04T13:30:13.517Z,985.94
2019-03-04T13:31:13.390Z,985.93
2019-03-04T13:33:06.064Z,985.91
2019-03-04T13:34:05.952Z,985.94
2019-03-04T13:35:58.642Z,985.93
2019-03-04T13:36:58.513Z,986.02
2019-03-04T13:38:51.183Z,986.02
2019-03-04T13:39:51.077Z,986.11
2019-03-04T13:41:43.750Z,986.15
2019-03-04T13:42:43.640Z,986.15
2019-03-04T13:44:36.301Z,986.21
2019-03-04T13:45:36.195Z,986.18
2019-03-04T13:47:28.874Z,986.29
2019-03-04T13:48:28.749Z,986.28
2019-03-04T13:50:21.409Z,986.34
2019-03-04T13:51:21.297Z,986.32
2019-03-04T13:53:13.986Z,986.33
2019-03-04T13:54:13.861Z,986.47
2019-03-04T13:56:06.526Z,986.44
2019-03-04T13:57:06.420Z,986.33
2019-03-04T13:58:59.104Z,986.48
2019-03-04T13:59:58.969Z,986.36
2019-03-04T14:01:51.665Z,986.51
2019-03-04T14:02:51.536Z,986.49
2019-03-04T14:04:44.195Z,986.56
2019-03-04T14:05:44.089Z,986.56
2019-03-04T14:07:36.783Z,986.56
2019-03-04T14:08:36.660Z,986.69
2019-03-04T14:10:29.316Z,986.77
2019-03-04T14:11:29.206Z,986.82
2019-03-04T14:13:21.903Z,986.91
2019-03-04T14:14:21.764Z,986.78
2019-03-04T14:16:14.430Z,986.85
2019-03-04T14:17:14.324Z,986.96
2019-03-04T14:19:07.053Z,986.89
2019-03-04T14:20:06.902Z,986.88
2019-03-04T14:21:59.555Z,987.03
2019-03-04T14:22:59.447Z,987.05
2019-03-04T14:24:52.125Z,987.21
2019-03-04T14:25:52.006Z,987.23
2019-03-04T14:27:44.674Z,987.30
2019-03-04T14:28:44.568Z,987.18
2019-03-04T14:30:37.371Z,987.26
2019-03-04T14:31:37.241Z,987.23
2019-03-04T14:33:29.946Z,987.18
2019-03-04T14:34:29.806Z,987.14
2019-03-04T14:36:22.490Z,987.20
2019-03-04T14:37:22.368Z,987.22
2019-03-04T14:39:15.044Z,987.21
2019-03-04T14:40:14.919Z,987.34
2019-03-04T14:42:07.607Z,987.36
2019-03-04T14:43:07.489Z,987.47
2019-03-04T14:45:00.347Z,987.47
2019-03-04T14:46:00.039Z,987.60
2019-03-04T14:47:52.723Z,987.57
2019-03-04T14:48:52.604Z,987.60
2019-03-04T14:50:45.284Z,987.54
2019-03-04T14:51:45.144Z,987.54
2019-03-04T14:53:37.868Z,987.64
2019-03-04T14:54:37.762Z,987.65
2019-03-04T14:56:30.445Z,987.68
2019-03-04T14:57:30.322Z,987.74
2019-03-04T14:59:22.985Z,987.64
2019-03-04T15:00:22.874Z,987.89
2019-03-04T15:02:15.555Z,987.75
2019-03-04T15:03:22.050Z,987.84
2019-03-04T15:05:08.106Z,987.78
2019-03-04T15:06:07.990Z,987.76
2019-03-04T15:08:00.843Z,987.79
2019-03-04T15:09:00.574Z,987.82
2019-03-04T15:10:53.236Z,987.81
2019-03-04T15:11:53.140Z,987.88
2019-03-04T15:13:45.829Z,987.95
2019-03-04T15:14:45.698Z,987.95
2019-03-04T15:16:38.852Z,988.02
2019-03-04T15:17:38.741Z,988.00
2019-03-04T15:19:31.427Z,988.17
2019-03-04T15:20:33.390Z,988.09
2019-03-04T15:22:23.986Z,988.25
2019-03-04T15:23:23.848Z,988.13
2019-03-04T15:25:16.543Z,988.17
2019-03-04T15:26:16.402Z,988.21
2019-03-04T15:28:09.076Z,988.21
2019-03-04T15:29:08.972Z,988.24
2019-03-04T15:31:01.649Z,988.39
2019-03-04T15:32:01.552Z,988.46
2019-03-04T15:33:54.184Z,988.45
2019-03-04T15:34:54.080Z,988.53
2019-03-04T15:36:46.759Z,988.55
2019-03-04T15:37:46.626Z,988.53
2019-03-04T15:39:39.296Z,988.57
2019-03-04T15:40:39.183Z,988.59
2019-03-04T15:42:31.862Z,988.59
2019-03-04T15:43:31.745Z,988.63
2019-03-04T15:45:24.422Z,988.62
2019-03-04T15:46:24.316Z,988.75
2019-03-04T15:48:16.993Z,988.73
2019-03-04T15:49:16.866Z,988.73
2019-03-04T15:51:09.540Z,988.74
2019-03-04T15:52:09.428Z,988.78
2019-03-04T15:54:02.109Z,988.81
2019-03-04T15:55:01.989Z,988.79
2019-03-04T15:56:54.672Z,988.88
2019-03-04T15:57:54.550Z,988.91
2019-03-04T15:59:47.237Z,988.97
2019-03-04T16:00:47.101Z,988.94
2019-03-04T16:02:39.777Z,988.96
2019-03-04T16:03:39.669Z,989.02
2019-03-04T16:05:32.350Z,989.09
2019-03-04T16:06:32.208Z,989.02
2019-03-04T16:08:24.880Z,989.14
2019-03-04T16:09:24.786Z,989.11
2019-03-04T16:11:17.456Z,989.14
2019-03-04T16:12:17.408Z,989.29
2019-03-04T16:14:09.989Z,989.16
2019-03-04T16:15:09.897Z,989.21
2019-03-04T16:17:02.718Z,989.30
2019-03-04T16:18:02.481Z,989.35
2019-03-04T16:19:55.147Z,989.27
2019-03-04T16:20:55.036Z,989.35
2019-03-04T16:22:47.732Z,989.45
2019-03-04T16:23:47.597Z,989.37
2019-03-04T16:25:40.274Z,989.43
2019-03-04T16:26:40.152Z,989.53
2019-03-04T16:28:32.819Z,989.61
2019-03-04T16:29:37.046Z,989.58
2019-03-04T16:31:25.431Z,989.61
2019-03-04T16:32:25.263Z,989.71
2019-03-04T16:34:18.439Z,989.64
2019-03-04T16:35:18.313Z,989.70
2019-03-04T16:37:10.979Z,989.74
2019-03-04T16:38:10.871Z,989.72
2019-03-04T16:40:03.551Z,989.85
2019-03-04T16:41:03.420Z,989.83
2019-03-04T16:42:56.109Z,989.85
2019-03-04T16:43:55.988Z,989.86
2019-03-04T16:45:48.658Z,989.91
2019-03-04T16:46:48.544Z,989.94
2019-03-04T16:48:41.222Z,989.98
2019-03-04T16:49:41.116Z,989.99
2019-03-04T16:51:33.789Z,990.11
2019-03-04T16:52:33.647Z,990.06
2019-03-04T16:54:26.336Z,990.09
2019-03-04T16:55:26.196Z,990.20
2019-03-04T16:57:18.854Z,990.20
2019-03-04T16:58:18.757Z,990.14
2019-03-04T17:00:11.431Z,990.18
2019-03-04T17:01:11.311Z,990.19
2019-03-04T17:03:03.971Z,990.32
2019-03-04T17:04:03.862Z,990.35
2019-03-04T17:05:56.545Z,990.36
2019-03-04T17:06:56.418Z,990.26
2019-03-04T17:08:49.074Z,990.32
2019-03-04T17:09:48.965Z,990.36
2019-03-04T17:11:41.663Z,990.39
2019-03-04T17:12:41.520Z,990.52
2019-03-04T17:14:34.303Z,990.51
2019-03-04T17:15:34.195Z,990.50
2019-03-04T17:17:26.903Z,990.57
2019-03-04T17:18:26.747Z,990.57
2019-03-04T17:20:19.438Z,990.55
2019-03-04T17:21:19.301Z,990.75
2019-03-04T17:23:11.973Z,990.81
2019-03-04T17:24:11.855Z,990.84
2019-03-04T17:26:04.539Z,990.90
2019-03-04T17:27:04.406Z,990.96
2019-03-04T17:28:57.072Z,990.98
2019-03-04T17:29:56.962Z,990.93
2019-03-04T17:31:49.641Z,991.11
2019-03-04T17:32:49.648Z,990.95
2019-03-04T17:34:42.200Z,991.11
2019-03-04T17:35:42.138Z,991.17
2019-03-04T17:37:34.864Z,991.24
2019-03-04T17:38:34.653Z,991.27
2019-03-04T17:40:27.296Z,991.22
2019-03-04T17:41:27.185Z,991.33
2019-03-04T17:43:20.050Z,991.31
2019-03-04T17:44:19.774Z,991.30
2019-03-04T17:46:12.462Z,991.36
2019-03-04T17:47:12.359Z,991.42
2019-03-04T17:49:04.995Z,991.47
2019-03-04T17:50:04.925Z,991.43
2019-03-04T17:51:57.557Z,991.45
2019-03-04T17:52:57.430Z,991.45
2019-03-04T17:54:50.583Z,991.47
2019-03-04T17:55:50.463Z,991.45
2019-03-04T17:57:43.142Z,991.55
2019-03-04T17:58:43.013Z,991.51
2019-03-04T18:00:35.675Z,991.57
2019-03-04T18:01:35.566Z,991.59
2019-03-04T18:03:28.239Z,991.56
2019-03-04T18:04:28.108Z,991.61
2019-03-04T18:06:20.782Z,991.65
2019-03-04T18:07:20.669Z,991.60
2019-03-04T18:09:13.856Z,991.64
2019-03-04T18:10:13.713Z,991.62
2019-03-04T18:12:06.368Z,991.56
2019-03-04T18:13:06.261Z,991.57
2019-03-04T18:14:58.950Z,991.61
2019-03-04T18:15:58.820Z,991.58
2019-03-04T18:17:51.500Z,991.62
2019-03-04T18:18:51.383Z,991.67
2019-03-04T18:20:44.044Z,991.61
2019-03-04T18:21:43.919Z,991.63
2019-03-04T18:23:36.629Z,991.68
2019-03-04T18:24:36.491Z,991.67
2019-03-04T18:26:29.173Z,991.71
2019-03-04T18:27:29.045Z,991.72
2019-03-04T18:29:21.721Z,991.77
2019-03-04T18:30:21.611Z,991.77
2019-03-04T18:32:14.287Z,991.75
2019-03-04T18:33:14.154Z,991.73
2019-03-04T18:35:06.851Z,991.79
2019-03-04T18:36:06.713Z,991.87
2019-03-04T18:37:59.385Z,991.81
2019-03-04T18:38:59.270Z,991.82
2019-03-04T18:40:51.955Z,991.90
2019-03-04T18:41:51.855Z,991.94
2019-03-04T18:43:44.531Z,991.94
2019-03-04T18:44:44.392Z,991.98
2019-03-04T18:46:37.069Z,991.94
2019-03-04T18:47:36.933Z,991.90
2019-03-04T18:49:29.627Z,991.91
2019-03-04T18:50:29.496Z,991.95
2019-03-04T18:52:22.196Z,991.91
2019-03-04T18:53:22.051Z,991.95
2019-03-04T18:55:15.207Z,992.04
2019-03-04T18:56:21.722Z,991.98
2019-03-04T18:58:07.840Z,992.03
2019-03-04T18:59:07.640Z,992.03
2019-03-04T19:01:00.300Z,992.03
2019-03-04T19:02:00.200Z,992.07
2019-03-04T19:03:52.898Z,992.10
2019-03-04T19:04:52.762Z,992.06
2019-03-04T19:06:45.451Z,992.03
2019-03-04T19:07:45.342Z,992.09
2019-03-04T19:09:38.015Z,992.01
2019-03-04T19:10:37.904Z,992.10
2019-03-04T19:12:30.566Z,992.15
2019-03-04T19:13:30.459Z,992.10
2019-03-04T19:15:23.140Z,992.23
2019-03-04T19:16:23.012Z,992.13
2019-03-04T19:18:15.677Z,992.09
2019-03-04T19:19:15.565Z,992.14
2019-03-04T19:21:08.252Z,992.19
2019-03-04T19:22:08.117Z,992.07
2019-03-04T19:24:00.801Z,992.16
2019-03-04T19:25:00.665Z,992.15
2019-03-04T19:26:53.364Z,992.16
2019-03-04T19:27:53.234Z,992.14
2019-03-04T19:29:45.914Z,992.15
2019-03-04T19:30:45.810Z,992.16
2019-03-04T19:32:38.472Z,992.11
2019-03-04T19:33:38.330Z,992.17
2019-03-04T19:35:30.996Z,992.16
2019-03-04T19:36:30.881Z,992.11
2019-03-04T19:38:23.562Z,992.12
2019-03-04T19:39:23.418Z,992.19
2019-03-04T19:41:16.107Z,992.11
2019-03-04T19:42:15.972Z,992.15
2019-03-04T19:44:08.639Z,992.20
2019-03-04T19:45:08.527Z,992.11
2019-03-04T19:47:01.199Z,992.11
2019-03-04T19:48:01.065Z,992.14
2019-03-04T19:49:53.732Z,992.21
2019-03-04T19:50:53.613Z,992.19
2019-03-04T19:52:46.292Z,992.24
2019-03-04T19:53:46.158Z,992.21
2019-03-04T19:55:38.815Z,992.20
2019-03-04T19:56:38.701Z,992.28
2019-03-04T19:58:31.383Z,992.23
2019-03-04T19:59:31.252Z,992.24
2019-03-04T20:01:23.907Z,992.30
2019-03-04T20:02:23.798Z,992.27
2019-03-04T20:04:16.477Z,992.23
2019-03-04T20:05:16.342Z,992.26
2019-03-04T20:07:09.010Z,992.34
2019-03-04T20:08:08.894Z,992.28
2019-03-04T20:10:01.588Z,992.35
2019-03-04T20:11:01.448Z,992.37
2019-03-04T20:12:54.108Z,992.37
2019-03-04T20:13:53.994Z,992.34
2019-03-04T20:15:46.678Z,992.49
2019-03-04T20:16:46.551Z,992.44
2019-03-04T20:18:39.211Z,992.43
2019-03-04T20:19:39.096Z,992.49
2019-03-04T20:21:31.802Z,992.48
2019-03-04T20:22:31.660Z,992.49
2019-03-04T20:24:24.335Z,992.50
2019-03-04T20:25:24.211Z,992.46
2019-03-04T20:27:16.932Z,992.47
2019-03-04T20:28:16.801Z,992.47
2019-03-04T20:30:09.842Z,992.49
2019-03-04T20:31:09.320Z,992.52
2019-03-04T20:33:02.007Z,992.50
2019-03-04T20:34:01.872Z,992.57
2019-03-04T20:35:54.572Z,992.55
2019-03-04T20:36:54.435Z,992.53
2019-03-04T20:38:47.105Z,992.53
2019-03-04T20:39:46.976Z,992.54
2019-03-04T20:41:39.640Z,992.56
2019-03-04T20:42:39.522Z,992.53
2019-03-04T20:44:32.206Z,992.58
2019-03-04T20:45:32.072Z,992.60
2019-03-04T20:47:24.738Z,992.65
2019-03-04T20:48:24.623Z,992.59
2019-03-04T20:50:17.305Z,992.66
2019-03-04T20:51:17.179Z,992.63
2019-03-04T20:53:09.841Z,992.67
2019-03-04T20:54:09.826Z,992.69
2019-03-04T20:56:02.416Z,992.66
2019-03-04T20:57:02.277Z,992.64
2019-03-04T20:58:54.936Z,992.66
2019-03-04T20:59:54.831Z,992.72
2019-03-04T21:01:47.545Z,992.67
2019-03-04T21:02:47.383Z,992.73
2019-03-04T21:04:40.134Z,992.67
2019-03-04T21:05:39.966Z,992.73
2019-03-04T21:07:32.652Z,992.69
2019-03-04T21:08:32.515Z,992.71
2019-03-04T21:10:25.177Z,992.75
2019-03-04T21:11:25.071Z,992.77
2019-03-04T21:13:17.764Z,992.81
2019-03-04T21:14:17.616Z,992.79
2019-03-04T21:16:10.284Z,992.91
2019-03-04T21:17:10.170Z,992.85
2019-03-04T21:19:02.854Z,992.90
2019-03-04T21:20:02.726Z,992.87
2019-03-04T21:21:55.384Z,992.85
2019-03-04T21:22:55.276Z,992.94
2019-03-04T21:24:48.374Z,992.85
2019-03-04T21:25:47.925Z,992.99
2019-03-04T21:27:40.487Z,992.86
2019-03-04T21:28:40.379Z,992.87
2019-03-04T21:30:33.055Z,992.87
2019-03-04T21:31:32.930Z,992.87
2019-03-04T21:33:25.587Z,992.85
2019-03-04T21:34:25.474Z,992.94
2019-03-04T21:36:18.157Z,992.93
2019-03-04T21:37:18.031Z,992.96
2019-03-04T21:39:10.696Z,992.94
2019-03-04T21:40:10.585Z,992.97
2019-03-04T21:42:03.259Z,993.00
2019-03-04T21:43:03.139Z,993.02
2019-03-04T21:44:55.793Z,992.98
2019-03-04T21:45:55.686Z,992.96
2019-03-04T21:47:48.367Z,992.96
2019-03-04T21:48:48.243Z,993.04
2019-03-04T21:50:40.894Z,993.02
2019-03-04T21:51:40.786Z,992.98
2019-03-04T21:53:33.464Z,992.99
2019-03-04T21:54:33.326Z,992.97
2019-03-04T21:56:25.991Z,992.96
2019-03-04T21:57:25.888Z,992.95
2019-03-04T21:59:18.571Z,992.97
2019-03-04T22:00:18.440Z,993.05
2019-03-04T22:02:11.100Z,992.99
2019-03-04T22:03:10.992Z,993.09
2019-03-04T22:05:03.683Z,993.06
2019-03-04T22:06:03.591Z,993.10
2019-03-04T22:07:56.908Z,993.15
2019-03-04T22:08:56.080Z,993.30
2019-03-04T22:10:48.933Z,993.15
2019-03-04T22:11:48.977Z,993.36
2019-03-04T22:13:41.392Z,993.26
2019-03-04T22:14:41.402Z,993.30
2019-03-04T22:16:33.979Z,993.25
2019-03-04T22:17:33.825Z,993.28
2019-03-04T22:19:26.992Z,993.32
2019-03-04T22:20:27.280Z,993.32
2019-03-04T22:22:19.545Z,993.42
2019-03-04T22:23:19.408Z,993.38
2019-03-04T22:25:12.067Z,993.28
2019-03-04T22:26:11.957Z,993.39
2019-03-04T22:28:04.709Z,993.37
2019-03-04T22:29:04.498Z,993.39
2019-03-04T22:30:57.203Z,993.44
2019-03-04T22:31:57.047Z,993.42
2019-03-04T22:33:49.728Z,993.44
2019-03-04T22:34:49.619Z,993.43
2019-03-04T22:36:42.272Z,993.58
2019-03-04T22:37:42.137Z,993.55
2019-03-04T22:39:34.836Z,993.46
2019-03-04T22:40:34.712Z,993.43
2019-03-04T22:42:27.356Z,993.47
2019-03-04T22:43:27.283Z,993.41
2019-03-04T22:45:20.434Z,993.48
2019-03-04T22:46:20.328Z,993.42
2019-03-04T22:48:12.970Z,993.42
2019-03-04T22:49:12.874Z,993.49
2019-03-04T22:51:05.583Z,993.51
2019-03-04T22:52:05.424Z,993.44
2019-03-04T22:53:58.071Z,993.50
2019-03-04T22:54:57.942Z,993.52
2019-03-04T22:56:50.624Z,993.49